page 5761 of 1004130 registered users

eBook PostsUsers

  1. 0vijayranikumar registered @ 2013-02-02 14:20:48, last login @ 2013-02-02 14:50:15
  2. 0magictemple3 registered @ 2013-02-02 14:21:51, last login @ 2013-02-02 14:42:21
  3. 0winterdryer26 registered @ 2013-02-02 14:22:21, last login @ 2013-02-02 14:22:21
  4. 0needsupply8 registered @ 2013-02-02 14:24:53, last login @ 2013-02-02 14:24:53
  5. 0singersprout74 registered @ 2013-02-02 14:24:58, last login @ 2013-02-02 14:24:58
  6. 0mittenjute1 registered @ 2013-02-02 14:26:14, last login @ 2013-02-02 14:26:14
  7. 0pilotant0 registered @ 2013-02-02 14:27:12, last login @ 2013-02-02 14:27:12
  8. 0oaksponge86 registered @ 2013-02-02 14:27:28, last login @ 2013-02-02 14:27:28
  9. 0dancekite53 registered @ 2013-02-02 14:27:46, last login @ 2013-02-02 14:27:46
  10. 0shark2wrench registered @ 2013-02-02 14:30:13, last login @ 2013-02-02 14:30:13
  11. 0hedgemonkey22 registered @ 2013-02-02 14:30:43, last login @ 2013-02-02 14:30:43
  12. 0shoetwine65 registered @ 2013-02-02 14:31:57, last login @ 2013-02-02 14:31:57
  13. 0rod69hat registered @ 2013-02-02 14:32:23, last login @ 2013-02-02 14:52:40
  14. 0tastetower82 registered @ 2013-02-02 14:32:25, last login @ 2013-02-02 14:32:25
  15. 0helium1mosque registered @ 2013-02-02 14:32:42, last login @ 2013-02-02 14:32:42
  16. 0eyelyric8 registered @ 2013-02-02 14:32:57, last login @ 2013-02-02 14:32:57
  17. 0link8advice registered @ 2013-02-02 14:35:00, last login @ 2013-02-02 14:35:00
  18. 0fontmarket85 registered @ 2013-02-02 14:36:10, last login @ 2013-02-02 14:36:10
  19. 0ticketmenu5 registered @ 2013-02-02 14:37:20, last login @ 2013-02-02 14:37:20
  20. 0ylzeb43uf registered @ 2013-02-02 14:38:18, last login @ 2013-02-02 14:38:18
  21. 0quincecause3 registered @ 2013-02-02 14:38:24, last login @ 2013-02-02 14:38:24
  22. 0quartelbow2 registered @ 2013-02-02 14:39:11, last login @ 2013-02-02 14:39:11
  23. 0socktulip4 registered @ 2013-02-02 14:39:25, last login @ 2013-02-02 14:39:25
  24. 0shock92dew registered @ 2013-02-02 14:40:43, last login @ 2013-02-02 14:40:43
  25. 0moonhour5 registered @ 2013-02-02 14:41:38, last login @ 2013-02-02 14:41:38
  26. 0flat9kitten registered @ 2013-02-02 14:43:05, last login @ 2013-02-02 14:43:05
  27. 0trial0dollar registered @ 2013-02-02 14:45:19, last login @ 2013-02-02 14:45:19
  28. 0openbrow37 registered @ 2013-02-02 14:46:23, last login @ 2013-02-02 14:46:23
  29. 0selectskirt73 registered @ 2013-02-02 14:46:46, last login @ 2013-02-02 14:46:46
  30. 0mapglass17 registered @ 2013-02-02 14:47:21, last login @ 2013-02-02 14:47:21
  31. 0eggnog72ash registered @ 2013-02-02 14:48:06, last login @ 2013-02-02 14:48:06
  32. 0bra7whale registered @ 2013-02-02 14:50:17, last login @ 2013-02-02 14:50:17
  33. 0palmanime63 registered @ 2013-02-02 14:52:46, last login @ 2013-02-02 14:52:46
  34. 0burma32quiet registered @ 2013-02-02 14:53:07, last login @ 2013-02-02 14:53:07
  35. 0wpcoub70 registered @ 2013-02-02 14:53:48, last login @ 2013-02-02 14:53:48
  36. 0tailor80toilet registered @ 2013-02-02 14:54:37, last login @ 2013-02-02 14:54:37
  37. 0kidneybagel89 registered @ 2013-02-02 14:56:02, last login @ 2013-02-02 14:56:02
  38. 0hawk2helium registered @ 2013-02-02 14:57:06, last login @ 2013-02-02 14:57:06
  39. 0feetsing60 registered @ 2013-02-02 14:57:20, last login @ 2013-02-02 14:57:20
  40. 0buffet36walk registered @ 2013-02-02 14:58:09, last login @ 2013-02-02 14:58:09
  41. 0porterbeef3 registered @ 2013-02-02 14:58:13, last login @ 2013-02-02 14:58:13
  42. 0musclemoat57 registered @ 2013-02-02 14:59:02, last login @ 2013-02-02 14:59:02
  43. 0fox28kettle registered @ 2013-02-02 14:59:43, last login @ 2013-02-02 14:59:43
  44. 0fangfine1 registered @ 2013-02-02 15:00:20, last login @ 2013-02-02 15:00:20
  45. 0steven96beggar registered @ 2013-02-02 15:00:21, last login @ 2013-02-02 15:00:21
  46. 0turtle03sister registered @ 2013-02-02 15:00:51, last login @ 2013-02-02 15:00:51
  47. 0childmale5 registered @ 2013-02-02 15:01:23, last login @ 2013-02-02 15:01:23
  48. 0advice4wedge registered @ 2013-02-02 15:01:39, last login @ 2013-02-02 15:01:39
  49. 0book06goat registered @ 2013-02-02 15:01:52, last login @ 2013-02-02 15:45:02
  50. 0rayontie7 registered @ 2013-02-02 15:02:25, last login @ 2013-02-02 15:02:25
  51. 0karate20atm registered @ 2013-02-02 15:03:40, last login @ 2013-02-02 15:03:40
  52. 0dance40marble registered @ 2013-02-02 15:05:45, last login @ 2013-02-02 15:51:34
  53. 0clutch58pepper registered @ 2013-02-02 15:06:24, last login @ 2013-02-02 15:51:49
  54. 0spyaries55 registered @ 2013-02-02 15:06:39, last login @ 2013-02-02 15:41:48
  55. 0botany0wall registered @ 2013-02-02 15:06:46, last login @ 2013-02-02 15:06:46
  56. 0leaf62bengal registered @ 2013-02-02 15:07:21, last login @ 2013-02-02 15:07:21
  57. 0pesttoast79 registered @ 2013-02-02 15:07:57, last login @ 2013-02-02 15:07:57
  58. 0click94oyster registered @ 2013-02-02 15:08:17, last login @ 2013-02-02 15:08:17
  59. 0actor59plant registered @ 2013-02-02 15:08:19, last login @ 2013-02-02 15:08:19
  60. 0truckgreek72 registered @ 2013-02-02 15:08:35, last login @ 2013-02-02 15:54:00
  61. 0title03oxygen registered @ 2013-02-02 15:09:13, last login @ 2013-02-02 15:48:50
  62. 0Crickboy registered @ 2013-02-02 15:09:59, last login @ 2013-02-02 15:09:59
  63. 0lumbericon9 registered @ 2013-02-02 15:10:02, last login @ 2013-02-02 15:10:02
  64. 0output1bail registered @ 2013-02-02 15:10:27, last login @ 2013-02-02 15:33:20
  65. 0liverhole2 registered @ 2013-02-02 15:10:29, last login @ 2013-02-02 15:10:29
  66. 0mittenlentil34 registered @ 2013-02-02 15:10:34, last login @ 2013-02-02 15:10:34
  67. 0theorypajama9 registered @ 2013-02-02 15:11:30, last login @ 2013-02-02 15:11:30
  68. 0pilot97wax registered @ 2013-02-02 15:12:48, last login @ 2013-02-02 15:12:48
  69. 0pagecolor11 registered @ 2013-02-02 15:12:51, last login @ 2013-02-02 15:12:51
  70. 0sybzfnvyz86 registered @ 2013-02-02 15:13:10, last login @ 2013-02-02 15:13:10
  71. 0form24spark registered @ 2013-02-02 15:13:26, last login @ 2013-02-02 15:13:26
  72. 0foxclock01 registered @ 2013-02-02 15:13:46, last login @ 2013-02-02 15:13:46
  73. 0gun5willow registered @ 2013-02-02 15:14:33, last login @ 2013-02-02 15:14:33
  74. 0okracherry8 registered @ 2013-02-02 15:15:00, last login @ 2013-02-02 15:54:39
  75. 0drake6dad registered @ 2013-02-02 15:15:21, last login @ 2013-02-02 15:15:21
  76. 0person4force registered @ 2013-02-02 15:15:40, last login @ 2013-02-02 15:15:40
  77. 0betty96legal registered @ 2013-02-02 15:15:52, last login @ 2013-02-02 15:50:10
  78. 0oildraw67 registered @ 2013-02-02 15:18:48, last login @ 2013-02-02 15:18:48
  79. 0tuba6clock registered @ 2013-02-02 15:20:29, last login @ 2013-02-02 15:20:29
  80. 0mealstate2 registered @ 2013-02-02 15:20:39, last login @ 2013-02-02 15:20:39
  81. 0chicktest56 registered @ 2013-02-02 15:21:07, last login @ 2013-02-02 15:43:36
  82. 0litterbush3 registered @ 2013-02-02 15:21:51, last login @ 2013-02-02 15:21:51
  83. 0petcook1 registered @ 2013-02-02 15:23:40, last login @ 2013-02-02 15:23:40
  84. 0voicekorean0 registered @ 2013-02-02 15:23:59, last login @ 2013-02-02 15:23:59
  85. 0ankle2tailor registered @ 2013-02-02 15:24:19, last login @ 2013-02-02 15:24:19
  86. 0drink50jelly registered @ 2013-02-02 15:25:23, last login @ 2013-02-02 15:25:23
  87. 0vise3single registered @ 2013-02-02 15:25:24, last login @ 2013-02-02 15:25:24
  88. 0bead7grill registered @ 2013-02-02 15:25:50, last login @ 2013-02-02 15:25:50
  89. 0alloyline9 registered @ 2013-02-02 15:26:49, last login @ 2013-02-02 15:26:49
  90. 0congopuppy8 registered @ 2013-02-02 15:27:06, last login @ 2013-02-02 15:27:06
  91. 0beachbeet46 registered @ 2013-02-02 15:27:24, last login @ 2013-02-02 15:27:24
  92. 0latex3kevin registered @ 2013-02-02 15:27:38, last login @ 2013-02-02 15:27:38
  93. 0sphere55harp registered @ 2013-02-02 15:29:30, last login @ 2013-02-02 15:29:30
  94. 0bomber65cafe registered @ 2013-02-02 15:30:26, last login @ 2013-02-02 15:30:26
  95. 0chardslime61 registered @ 2013-02-02 15:31:48, last login @ 2013-02-02 15:31:48
  96. 0dinnerengine32 registered @ 2013-02-02 15:32:34, last login @ 2013-02-02 15:32:34
  97. 0lilyweasel41 registered @ 2013-02-02 15:32:48, last login @ 2013-02-02 15:32:48
  98. 0alley1galley registered @ 2013-02-02 15:32:48, last login @ 2013-02-02 15:32:48
  99. 0snowpvc39 registered @ 2013-02-02 15:34:11, last login @ 2013-02-02 15:34:11
  100. 0epoxycanada0 registered @ 2013-02-02 15:35:16, last login @ 2013-02-02 15:35:16
  101. 0stemrain3 registered @ 2013-02-02 15:35:44, last login @ 2013-02-02 15:57:01

More...

[5771] [5770] [5769] [5768] [5767] [5766] [5765] [5764] [5763] [5762] [5761] [5760] [5759] [5758] [5757] [5756] [5755] [5754] [5753] [5752] ...[1]
Back to Top